sensor_id;sensor_type;location;lat;lon;timestamp;P1;durP1;ratioP1;P2;durP2;ratioP2
39300;SDS011;25019;42.626;23.380;2023-03-03T00:01:27;5.37;;;3.40;;
39300;SDS011;25019;42.626;23.380;2023-03-03T00:03:53;6.80;;;4.10;;
39300;SDS011;25019;42.626;23.380;2023-03-03T00:06:19;5.03;;;3.90;;
39300;SDS011;25019;42.626;23.380;2023-03-03T00:08:45;4.43;;;3.80;;
39300;SDS011;25019;42.626;23.380;2023-03-03T00:11:11;4.13;;;3.70;;
39300;SDS011;25019;42.626;23.380;2023-03-03T00:13:42;5.97;;;4.30;;
39300;SDS011;25019;42.626;23.380;2023-03-03T00:16:25;5.60;;;4.57;;
39300;SDS011;25019;42.626;23.380;2023-03-03T00:18:53;5.80;;;4.40;;
39300;SDS011;25019;42.626;23.380;2023-03-03T00:21:23;5.90;;;4.67;;
39300;SDS011;25019;42.626;23.380;2023-03-03T00:23:54;5.80;;;4.60;;
39300;SDS011;25019;42.626;23.380;2023-03-03T00:26:50;8.23;;;5.27;;
39300;SDS011;25019;42.626;23.380;2023-03-03T00:34:39;7.10;;;4.83;;
39300;SDS011;25019;42.626;23.380;2023-03-03T00:40:10;7.17;;;4.20;;
39300;SDS011;25019;42.626;23.380;2023-03-03T00:42:45;6.00;;;5.03;;
39300;SDS011;25019;42.626;23.380;2023-03-03T00:45:25;6.30;;;4.87;;
39300;SDS011;25019;42.626;23.380;2023-03-03T00:47:53;7.40;;;4.83;;
39300;SDS011;25019;42.626;23.380;2023-03-03T00:50:24;7.27;;;5.20;;
39300;SDS011;25019;42.626;23.380;2023-03-03T00:52:59;6.57;;;4.90;;
39300;SDS011;25019;42.626;23.380;2023-03-03T00:55:27;8.23;;;4.47;;
39300;SDS011;25019;42.626;23.380;2023-03-03T00:57:53;5.07;;;4.07;;
39300;SDS011;25019;42.626;23.380;2023-03-03T01:00:23;7.37;;;4.67;;
39300;SDS011;25019;42.626;23.380;2023-03-03T01:02:49;6.97;;;4.93;;
39300;SDS011;25019;42.626;23.380;2023-03-03T01:05:16;5.63;;;4.80;;
39300;SDS011;25019;42.626;23.380;2023-03-03T01:07:42;7.07;;;4.93;;
39300;SDS011;25019;42.626;23.380;2023-03-03T01:10:08;6.20;;;4.70;;
39300;SDS011;25019;42.626;23.380;2023-03-03T01:12:34;5.77;;;4.60;;
39300;SDS011;25019;42.626;23.380;2023-03-03T01:15:00;4.90;;;4.33;;
39300;SDS011;25019;42.626;23.380;2023-03-03T01:17:26;7.17;;;5.17;;
39300;SDS011;25019;42.626;23.380;2023-03-03T01:19:53;8.03;;;5.77;;
39300;SDS011;25019;42.626;23.380;2023-03-03T01:22:18;6.27;;;4.83;;
39300;SDS011;25019;42.626;23.380;2023-03-03T01:24:44;6.13;;;4.83;;
39300;SDS011;25019;42.626;23.380;2023-03-03T01:27:09;6.90;;;5.07;;
39300;SDS011;25019;42.626;23.380;2023-03-03T01:29:35;7.50;;;5.23;;
39300;SDS011;25019;42.626;23.380;2023-03-03T01:32:01;7.57;;;5.20;;
39300;SDS011;25019;42.626;23.380;2023-03-03T01:34:27;5.57;;;4.97;;
39300;SDS011;25019;42.626;23.380;2023-03-03T01:36:52;6.97;;;4.73;;
39300;SDS011;25019;42.626;23.380;2023-03-03T01:39:18;7.03;;;4.53;;
39300;SDS011;25019;42.626;23.380;2023-03-03T01:41:43;5.50;;;4.57;;
39300;SDS011;25019;42.626;23.380;2023-03-03T01:44:15;5.33;;;4.00;;
39300;SDS011;25019;42.626;23.380;2023-03-03T01:49:14;6.60;;;4.27;;
39300;SDS011;25019;42.626;23.380;2023-03-03T01:51:49;6.17;;;4.40;;
39300;SDS011;25019;42.626;23.380;2023-03-03T01:54:23;7.47;;;4.80;;
39300;SDS011;25019;42.626;23.380;2023-03-03T01:57:00;6.77;;;4.83;;
39300;SDS011;25019;42.626;23.380;2023-03-03T01:59:33;8.33;;;5.60;;
39300;SDS011;25019;42.626;23.380;2023-03-03T02:02:06;6.97;;;4.97;;
39300;SDS011;25019;42.626;23.380;2023-03-03T02:04:33;7.70;;;4.97;;
39300;SDS011;25019;42.626;23.380;2023-03-03T02:07:01;7.07;;;5.13;;
39300;SDS011;25019;42.626;23.380;2023-03-03T02:12:13;5.60;;;4.80;;
39300;SDS011;25019;42.626;23.380;2023-03-03T02:14:43;4.83;;;4.13;;
39300;SDS011;25019;42.626;23.380;2023-03-03T02:17:09;6.00;;;4.70;;
39300;SDS011;25019;42.626;23.380;2023-03-03T02:20:23;5.60;;;4.37;;
39300;SDS011;25019;42.626;23.380;2023-03-03T02:22:33;5.47;;;4.53;;
39300;SDS011;25019;42.626;23.380;2023-03-03T02:25:06;6.30;;;4.80;;
39300;SDS011;25019;42.626;23.380;2023-03-03T02:27:35;6.77;;;4.57;;
39300;SDS011;25019;42.626;23.380;2023-03-03T02:30:14;6.50;;;5.00;;
39300;SDS011;25019;42.626;23.380;2023-03-03T02:32:43;7.43;;;5.67;;
39300;SDS011;25019;42.626;23.380;2023-03-03T02:35:31;8.43;;;5.63;;
39300;SDS011;25019;42.626;23.380;2023-03-03T02:38:10;8.00;;;5.57;;
39300;SDS011;25019;42.626;23.380;2023-03-03T02:43:35;7.47;;;5.80;;
39300;SDS011;25019;42.626;23.380;2023-03-03T02:46:06;8.03;;;5.50;;
39300;SDS011;25019;42.626;23.380;2023-03-03T02:48:32;7.93;;;6.40;;
39300;SDS011;25019;42.626;23.380;2023-03-03T02:50:57;8.10;;;5.67;;
39300;SDS011;25019;42.626;23.380;2023-03-03T02:53:23;6.93;;;5.77;;
39300;SDS011;25019;42.626;23.380;2023-03-03T02:55:51;8.70;;;6.63;;
39300;SDS011;25019;42.626;23.380;2023-03-03T02:58:16;8.17;;;6.00;;
39300;SDS011;25019;42.626;23.380;2023-03-03T03:00:42;7.87;;;6.17;;
39300;SDS011;25019;42.626;23.380;2023-03-03T03:03:15;8.33;;;6.70;;
39300;SDS011;25019;42.626;23.380;2023-03-03T03:05:40;7.63;;;6.17;;
39300;SDS011;25019;42.626;23.380;2023-03-03T03:08:06;10.13;;;6.70;;
39300;SDS011;25019;42.626;23.380;2023-03-03T03:10:32;9.37;;;6.57;;
39300;SDS011;25019;42.626;23.380;2023-03-03T03:12:58;10.33;;;7.50;;
39300;SDS011;25019;42.626;23.380;2023-03-03T03:15:23;8.20;;;6.40;;
39300;SDS011;25019;42.626;23.380;2023-03-03T03:17:49;9.50;;;7.27;;
39300;SDS011;25019;42.626;23.380;2023-03-03T03:20:15;9.20;;;6.97;;
39300;SDS011;25019;42.626;23.380;2023-03-03T03:22:43;10.07;;;7.27;;
39300;SDS011;25019;42.626;23.380;2023-03-03T03:25:09;9.93;;;6.60;;
39300;SDS011;25019;42.626;23.380;2023-03-03T03:27:36;8.87;;;6.57;;
39300;SDS011;25019;42.626;23.380;2023-03-03T03:30:01;9.33;;;7.37;;
39300;SDS011;25019;42.626;23.380;2023-03-03T03:32:28;11.00;;;7.67;;
39300;SDS011;25019;42.626;23.380;2023-03-03T03:34:54;12.90;;;8.50;;
39300;SDS011;25019;42.626;23.380;2023-03-03T03:37:20;9.83;;;7.13;;
39300;SDS011;25019;42.626;23.380;2023-03-03T03:39:46;11.63;;;8.17;;
39300;SDS011;25019;42.626;23.380;2023-03-03T03:42:12;12.63;;;8.47;;
39300;SDS011;25019;42.626;23.380;2023-03-03T03:44:38;11.73;;;8.17;;
39300;SDS011;25019;42.626;23.380;2023-03-03T03:47:04;12.30;;;8.80;;
39300;SDS011;25019;42.626;23.380;2023-03-03T03:49:29;12.47;;;8.47;;
39300;SDS011;25019;42.626;23.380;2023-03-03T03:51:56;12.63;;;8.57;;
39300;SDS011;25019;42.626;23.380;2023-03-03T03:54:25;14.13;;;9.47;;
39300;SDS011;25019;42.626;23.380;2023-03-03T03:56:51;13.43;;;9.23;;
39300;SDS011;25019;42.626;23.380;2023-03-03T03:59:19;15.33;;;10.10;;
39300;SDS011;25019;42.626;23.380;2023-03-03T04:01:45;15.10;;;10.00;;
39300;SDS011;25019;42.626;23.380;2023-03-03T04:04:12;16.77;;;10.37;;
39300;SDS011;25019;42.626;23.380;2023-03-03T04:06:38;13.77;;;9.13;;
39300;SDS011;25019;42.626;23.380;2023-03-03T04:09:05;15.60;;;9.90;;
39300;SDS011;25019;42.626;23.380;2023-03-03T04:11:30;12.83;;;8.87;;
39300;SDS011;25019;42.626;23.380;2023-03-03T04:13:56;16.60;;;9.70;;
39300;SDS011;25019;42.626;23.380;2023-03-03T04:16:22;14.37;;;9.80;;
39300;SDS011;25019;42.626;23.380;2023-03-03T04:18:48;14.17;;;9.53;;
39300;SDS011;25019;42.626;23.380;2023-03-03T04:21:15;14.03;;;9.23;;
39300;SDS011;25019;42.626;23.380;2023-03-03T04:23:42;12.23;;;8.47;;
39300;SDS011;25019;42.626;23.380;2023-03-03T04:26:09;11.87;;;8.53;;
39300;SDS011;25019;42.626;23.380;2023-03-03T04:28:35;14.77;;;9.03;;
39300;SDS011;25019;42.626;23.380;2023-03-03T04:31:01;15.67;;;9.67;;
39300;SDS011;25019;42.626;23.380;2023-03-03T04:33:29;15.90;;;9.77;;
39300;SDS011;25019;42.626;23.380;2023-03-03T04:35:55;15.60;;;10.63;;
39300;SDS011;25019;42.626;23.380;2023-03-03T04:38:20;15.33;;;9.80;;
39300;SDS011;25019;42.626;23.380;2023-03-03T04:40:47;12.27;;;8.90;;
39300;SDS011;25019;42.626;23.380;2023-03-03T04:43:15;16.60;;;9.73;;
39300;SDS011;25019;42.626;23.380;2023-03-03T04:45:45;13.43;;;9.63;;
39300;SDS011;25019;42.626;23.380;2023-03-03T04:48:11;14.67;;;9.53;;
39300;SDS011;25019;42.626;23.380;2023-03-03T04:50:37;14.03;;;8.93;;
39300;SDS011;25019;42.626;23.380;2023-03-03T04:53:03;17.20;;;10.73;;
39300;SDS011;25019;42.626;23.380;2023-03-03T04:55:29;15.13;;;9.77;;
39300;SDS011;25019;42.626;23.380;2023-03-03T04:57:55;15.20;;;9.77;;
39300;SDS011;25019;42.626;23.380;2023-03-03T05:00:21;13.77;;;9.20;;
39300;SDS011;25019;42.626;23.380;2023-03-03T05:02:47;15.40;;;9.30;;
39300;SDS011;25019;42.626;23.380;2023-03-03T05:05:13;12.47;;;8.10;;
39300;SDS011;25019;42.626;23.380;2023-03-03T05:07:39;13.90;;;8.90;;
39300;SDS011;25019;42.626;23.380;2023-03-03T05:10:06;17.63;;;11.30;;
39300;SDS011;25019;42.626;23.380;2023-03-03T05:12:32;17.60;;;11.47;;
39300;SDS011;25019;42.626;23.380;2023-03-03T05:14:58;18.70;;;12.03;;
39300;SDS011;25019;42.626;23.380;2023-03-03T05:17:24;19.37;;;12.07;;
39300;SDS011;25019;42.626;23.380;2023-03-03T05:19:49;19.37;;;12.77;;
39300;SDS011;25019;42.626;23.380;2023-03-03T05:22:15;19.53;;;12.40;;
39300;SDS011;25019;42.626;23.380;2023-03-03T05:24:41;19.07;;;12.40;;
39300;SDS011;25019;42.626;23.380;2023-03-03T05:27:07;19.30;;;11.33;;
39300;SDS011;25019;42.626;23.380;2023-03-03T05:29:33;18.10;;;11.90;;
39300;SDS011;25019;42.626;23.380;2023-03-03T05:31:59;18.10;;;12.30;;
39300;SDS011;25019;42.626;23.380;2023-03-03T05:34:25;16.03;;;11.10;;
39300;SDS011;25019;42.626;23.380;2023-03-03T05:36:50;17.63;;;11.20;;
39300;SDS011;25019;42.626;23.380;2023-03-03T05:39:16;20.20;;;12.53;;
39300;SDS011;25019;42.626;23.380;2023-03-03T05:41:42;21.47;;;13.57;;
39300;SDS011;25019;42.626;23.380;2023-03-03T05:44:08;22.70;;;12.67;;
39300;SDS011;25019;42.626;23.380;2023-03-03T05:46:34;23.97;;;13.30;;
39300;SDS011;25019;42.626;23.380;2023-03-03T05:48:59;22.57;;;13.43;;
39300;SDS011;25019;42.626;23.380;2023-03-03T05:51:25;19.27;;;13.23;;
39300;SDS011;25019;42.626;23.380;2023-03-03T05:53:51;20.73;;;13.13;;
39300;SDS011;25019;42.626;23.380;2023-03-03T05:56:17;19.67;;;12.43;;
39300;SDS011;25019;42.626;23.380;2023-03-03T05:58:43;21.40;;;14.00;;
39300;SDS011;25019;42.626;23.380;2023-03-03T06:01:09;23.63;;;14.13;;
39300;SDS011;25019;42.626;23.380;2023-03-03T06:03:36;21.70;;;13.37;;
39300;SDS011;25019;42.626;23.380;2023-03-03T06:06:01;24.90;;;14.40;;
39300;SDS011;25019;42.626;23.380;2023-03-03T06:08:27;24.43;;;14.17;;
39300;SDS011;25019;42.626;23.380;2023-03-03T06:10:53;23.67;;;13.60;;
39300;SDS011;25019;42.626;23.380;2023-03-03T06:13:19;25.40;;;13.93;;
39300;SDS011;25019;42.626;23.380;2023-03-03T06:15:44;21.80;;;12.67;;
39300;SDS011;25019;42.626;23.380;2023-03-03T06:18:10;22.90;;;13.27;;
39300;SDS011;25019;42.626;23.380;2023-03-03T06:20:36;22.50;;;13.20;;
39300;SDS011;25019;42.626;23.380;2023-03-03T06:23:03;19.57;;;13.40;;
39300;SDS011;25019;42.626;23.380;2023-03-03T06:25:28;20.03;;;13.00;;
39300;SDS011;25019;42.626;23.380;2023-03-03T06:27:54;20.07;;;13.17;;
39300;SDS011;25019;42.626;23.380;2023-03-03T06:30:19;25.67;;;15.00;;
39300;SDS011;25019;42.626;23.380;2023-03-03T06:32:45;21.80;;;13.87;;
39300;SDS011;25019;42.626;23.380;2023-03-03T06:35:11;19.93;;;12.17;;
39300;SDS011;25019;42.626;23.380;2023-03-03T06:37:37;19.93;;;11.63;;
39300;SDS011;25019;42.626;23.380;2023-03-03T06:40:03;20.43;;;12.23;;
39300;SDS011;25019;42.626;23.380;2023-03-03T06:42:30;20.50;;;12.93;;
39300;SDS011;25019;42.626;23.380;2023-03-03T06:44:55;22.13;;;12.90;;
39300;SDS011;25019;42.626;23.380;2023-03-03T06:47:21;21.07;;;11.90;;
39300;SDS011;25019;42.626;23.380;2023-03-03T06:49:47;17.97;;;12.10;;
39300;SDS011;25019;42.626;23.380;2023-03-03T06:52:13;18.30;;;11.80;;
39300;SDS011;25019;42.626;23.380;2023-03-03T06:54:43;20.07;;;12.47;;
39300;SDS011;25019;42.626;23.380;2023-03-03T06:59:47;18.90;;;11.80;;
39300;SDS011;25019;42.626;23.380;2023-03-03T07:02:16;19.30;;;11.70;;
39300;SDS011;25019;42.626;23.380;2023-03-03T07:04:43;19.67;;;12.10;;
39300;SDS011;25019;42.626;23.380;2023-03-03T07:07:18;18.27;;;11.97;;
39300;SDS011;25019;42.626;23.380;2023-03-03T07:09:53;15.93;;;10.63;;
39300;SDS011;25019;42.626;23.380;2023-03-03T07:12:21;17.90;;;11.53;;
39300;SDS011;25019;42.626;23.380;2023-03-03T07:15:09;16.20;;;11.27;;
39300;SDS011;25019;42.626;23.380;2023-03-03T07:17:45;17.13;;;12.27;;
39300;SDS011;25019;42.626;23.380;2023-03-03T07:20:32;14.97;;;10.20;;
39300;SDS011;25019;42.626;23.380;2023-03-03T07:23:07;15.17;;;9.90;;
39300;SDS011;25019;42.626;23.380;2023-03-03T07:25:45;15.63;;;10.57;;
39300;SDS011;25019;42.626;23.380;2023-03-03T07:30:45;11.60;;;8.93;;
39300;SDS011;25019;42.626;23.380;2023-03-03T07:33:17;12.73;;;8.93;;
39300;SDS011;25019;42.626;23.380;2023-03-03T07:35:44;12.13;;;8.30;;
39300;SDS011;25019;42.626;23.380;2023-03-03T07:38:24;10.67;;;8.10;;
39300;SDS011;25019;42.626;23.380;2023-03-03T07:41:16;11.43;;;8.33;;
39300;SDS011;25019;42.626;23.380;2023-03-03T07:43:51;12.63;;;9.03;;
39300;SDS011;25019;42.626;23.380;2023-03-03T07:48:50;13.33;;;9.40;;
39300;SDS011;25019;42.626;23.380;2023-03-03T07:51:21;13.73;;;10.20;;
39300;SDS011;25019;42.626;23.380;2023-03-03T07:53:51;14.53;;;9.67;;
39300;SDS011;25019;42.626;23.380;2023-03-03T07:56:28;13.57;;;9.80;;
39300;SDS011;25019;42.626;23.380;2023-03-03T07:58:58;13.07;;;9.23;;
39300;SDS011;25019;42.626;23.380;2023-03-03T08:04:17;10.77;;;8.13;;
39300;SDS011;25019;42.626;23.380;2023-03-03T08:06:48;9.17;;;7.63;;
39300;SDS011;25019;42.626;23.380;2023-03-03T08:14:28;10.20;;;8.17;;
39300;SDS011;25019;42.626;23.380;2023-03-03T08:17:16;12.00;;;7.33;;
39300;SDS011;25019;42.626;23.380;2023-03-03T08:19:47;10.23;;;8.07;;
39300;SDS011;25019;42.626;23.380;2023-03-03T08:22:15;11.73;;;8.53;;
39300;SDS011;25019;42.626;23.380;2023-03-03T08:24:43;13.40;;;8.37;;
39300;SDS011;25019;42.626;23.380;2023-03-03T08:27:08;17.10;;;9.47;;
39300;SDS011;25019;42.626;23.380;2023-03-03T08:29:34;14.53;;;9.27;;
39300;SDS011;25019;42.626;23.380;2023-03-03T08:32:00;12.63;;;8.57;;
39300;SDS011;25019;42.626;23.380;2023-03-03T08:34:27;11.50;;;8.03;;
39300;SDS011;25019;42.626;23.380;2023-03-03T08:36:53;14.07;;;8.77;;
39300;SDS011;25019;42.626;23.380;2023-03-03T08:39:21;11.83;;;8.03;;
39300;SDS011;25019;42.626;23.380;2023-03-03T08:41:46;15.60;;;8.37;;
39300;SDS011;25019;42.626;23.380;2023-03-03T08:44:12;14.10;;;9.10;;
39300;SDS011;25019;42.626;23.380;2023-03-03T08:46:37;13.40;;;8.90;;
39300;SDS011;25019;42.626;23.380;2023-03-03T08:49:03;12.93;;;8.23;;
39300;SDS011;25019;42.626;23.380;2023-03-03T08:51:29;14.00;;;9.90;;
39300;SDS011;25019;42.626;23.380;2023-03-03T08:53:54;16.50;;;10.53;;
39300;SDS011;25019;42.626;23.380;2023-03-03T08:56:20;17.57;;;10.80;;
39300;SDS011;25019;42.626;23.380;2023-03-03T08:58:46;13.53;;;8.80;;
39300;SDS011;25019;42.626;23.380;2023-03-03T09:01:15;18.07;;;10.60;;
39300;SDS011;25019;42.626;23.380;2023-03-03T09:03:41;17.50;;;11.60;;
39300;SDS011;25019;42.626;23.380;2023-03-03T09:06:07;13.07;;;9.10;;
39300;SDS011;25019;42.626;23.380;2023-03-03T09:08:33;13.60;;;8.97;;
39300;SDS011;25019;42.626;23.380;2023-03-03T09:10:59;14.50;;;9.37;;
39300;SDS011;25019;42.626;23.380;2023-03-03T09:13:28;15.30;;;10.10;;
39300;SDS011;25019;42.626;23.380;2023-03-03T09:15:55;17.53;;;10.40;;
39300;SDS011;25019;42.626;23.380;2023-03-03T09:18:40;14.83;;;9.17;;
39300;SDS011;25019;42.626;23.380;2023-03-03T09:21:24;11.07;;;7.93;;
39300;SDS011;25019;42.626;23.380;2023-03-03T09:23:59;14.30;;;9.43;;
39300;SDS011;25019;42.626;23.380;2023-03-03T09:31:55;12.17;;;8.57;;
39300;SDS011;25019;42.626;23.380;2023-03-03T09:34:42;12.37;;;8.47;;
39300;SDS011;25019;42.626;23.380;2023-03-03T09:37:23;12.20;;;8.27;;
39300;SDS011;25019;42.626;23.380;2023-03-03T09:39:55;11.67;;;8.43;;
39300;SDS011;25019;42.626;23.380;2023-03-03T09:50:54;11.60;;;8.97;;
39300;SDS011;25019;42.626;23.380;2023-03-03T09:53:47;13.50;;;8.57;;
39300;SDS011;25019;42.626;23.380;2023-03-03T09:59:06;12.97;;;9.33;;
39300;SDS011;25019;42.626;23.380;2023-03-03T10:04:55;11.10;;;8.20;;
39300;SDS011;25019;42.626;23.380;2023-03-03T10:16:20;12.87;;;8.63;;
39300;SDS011;25019;42.626;23.380;2023-03-03T10:18:46;10.50;;;8.50;;
39300;SDS011;25019;42.626;23.380;2023-03-03T10:32:20;14.00;;;10.40;;
39300;SDS011;25019;42.626;23.380;2023-03-03T10:41:27;15.23;;;10.53;;
39300;SDS011;25019;42.626;23.380;2023-03-03T10:46:33;15.03;;;9.80;;
39300;SDS011;25019;42.626;23.380;2023-03-03T10:53:16;12.93;;;9.50;;
39300;SDS011;25019;42.626;23.380;2023-03-03T11:01:22;13.13;;;9.53;;
39300;SDS011;25019;42.626;23.380;2023-03-03T11:07:00;13.73;;;10.07;;
39300;SDS011;25019;42.626;23.380;2023-03-03T11:12:24;13.70;;;10.27;;
39300;SDS011;25019;42.626;23.380;2023-03-03T11:18:02;18.47;;;10.13;;
39300;SDS011;25019;42.626;23.380;2023-03-03T11:40:55;13.03;;;9.70;;
39300;SDS011;25019;42.626;23.380;2023-03-03T11:43:31;13.90;;;10.53;;
39300;SDS011;25019;42.626;23.380;2023-03-03T11:46:07;15.43;;;11.77;;
39300;SDS011;25019;42.626;23.380;2023-03-03T11:48:49;14.93;;;11.33;;
39300;SDS011;25019;42.626;23.380;2023-03-03T11:51:28;16.93;;;12.80;;
39300;SDS011;25019;42.626;23.380;2023-03-03T11:54:02;15.60;;;12.37;;
39300;SDS011;25019;42.626;23.380;2023-03-03T11:56:40;16.60;;;12.93;;
39300;SDS011;25019;42.626;23.380;2023-03-03T12:01:59;16.53;;;12.60;;
39300;SDS011;25019;42.626;23.380;2023-03-03T12:04:26;18.57;;;14.17;;
39300;SDS011;25019;42.626;23.380;2023-03-03T12:13:06;15.40;;;12.23;;
39300;SDS011;25019;42.626;23.380;2023-03-03T12:18:47;15.77;;;12.20;;
39300;SDS011;25019;42.626;23.380;2023-03-03T12:24:16;15.67;;;12.70;;
39300;SDS011;25019;42.626;23.380;2023-03-03T12:27:10;19.87;;;13.80;;
39300;SDS011;25019;42.626;23.380;2023-03-03T12:34:56;18.43;;;14.20;;
39300;SDS011;25019;42.626;23.380;2023-03-03T12:37:47;19.37;;;14.60;;
39300;SDS011;25019;42.626;23.380;2023-03-03T12:43:02;20.83;;;16.33;;
39300;SDS011;25019;42.626;23.380;2023-03-03T12:48:11;22.13;;;16.53;;
39300;SDS011;25019;42.626;23.380;2023-03-03T12:56:14;21.73;;;17.20;;
39300;SDS011;25019;42.626;23.380;2023-03-03T12:58:56;22.50;;;16.37;;
39300;SDS011;25019;42.626;23.380;2023-03-03T13:01:35;22.00;;;16.60;;
39300;SDS011;25019;42.626;23.380;2023-03-03T13:06:52;20.23;;;15.83;;
39300;SDS011;25019;42.626;23.380;2023-03-03T13:15:20;20.13;;;16.03;;
39300;SDS011;25019;42.626;23.380;2023-03-03T13:20:50;19.07;;;15.70;;
39300;SDS011;25019;42.626;23.380;2023-03-03T13:23:30;18.70;;;13.50;;
39300;SDS011;25019;42.626;23.380;2023-03-03T13:31:42;16.30;;;12.30;;
39300;SDS011;25019;42.626;23.380;2023-03-03T13:34:19;17.63;;;13.60;;
39300;SDS011;25019;42.626;23.380;2023-03-03T13:36:58;17.27;;;14.30;;
39300;SDS011;25019;42.626;23.380;2023-03-03T13:39:31;18.63;;;14.10;;
39300;SDS011;25019;42.626;23.380;2023-03-03T13:42:07;16.67;;;13.30;;
39300;SDS011;25019;42.626;23.380;2023-03-03T13:44:51;17.33;;;12.67;;
39300;SDS011;25019;42.626;23.380;2023-03-03T13:47:34;14.07;;;11.23;;
39300;SDS011;25019;42.626;23.380;2023-03-03T13:58:10;13.50;;;11.27;;
39300;SDS011;25019;42.626;23.380;2023-03-03T14:05:51;12.87;;;10.40;;
39300;SDS011;25019;42.626;23.380;2023-03-03T14:08:43;16.40;;;11.40;;
39300;SDS011;25019;42.626;23.380;2023-03-03T14:19:23;13.13;;;10.77;;
39300;SDS011;25019;42.626;23.380;2023-03-03T14:24:59;13.40;;;11.60;;
39300;SDS011;25019;42.626;23.380;2023-03-03T14:28:01;11.47;;;10.20;;
39300;SDS011;25019;42.626;23.380;2023-03-03T14:38:25;13.70;;;12.30;;
39300;SDS011;25019;42.626;23.380;2023-03-03T14:48:57;15.40;;;12.93;;
39300;SDS011;25019;42.626;23.380;2023-03-03T14:51:25;14.13;;;11.93;;
39300;SDS011;25019;42.626;23.380;2023-03-03T14:53:54;14.90;;;12.30;;
39300;SDS011;25019;42.626;23.380;2023-03-03T14:56:25;16.23;;;12.27;;
39300;SDS011;25019;42.626;23.380;2023-03-03T14:58:54;15.30;;;12.93;;
39300;SDS011;25019;42.626;23.380;2023-03-03T15:01:38;18.77;;;13.97;;
39300;SDS011;25019;42.626;23.380;2023-03-03T15:04:04;17.37;;;13.30;;
39300;SDS011;25019;42.626;23.380;2023-03-03T15:06:48;17.33;;;14.50;;
39300;SDS011;25019;42.626;23.380;2023-03-03T15:09:34;15.90;;;13.37;;
39300;SDS011;25019;42.626;23.380;2023-03-03T15:14:47;16.47;;;13.80;;
39300;SDS011;25019;42.626;23.380;2023-03-03T15:22:54;17.50;;;13.33;;
39300;SDS011;25019;42.626;23.380;2023-03-03T15:27:52;16.93;;;13.90;;
39300;SDS011;25019;42.626;23.380;2023-03-03T15:30:36;23.27;;;17.37;;
39300;SDS011;25019;42.626;23.380;2023-03-03T15:35:53;21.77;;;16.73;;
39300;SDS011;25019;42.626;23.380;2023-03-03T15:38:33;22.93;;;16.73;;
39300;SDS011;25019;42.626;23.380;2023-03-03T15:41:06;20.40;;;16.60;;
39300;SDS011;25019;42.626;23.380;2023-03-03T15:43:48;23.30;;;18.60;;
39300;SDS011;25019;42.626;23.380;2023-03-03T15:46:42;23.73;;;18.40;;
39300;SDS011;25019;42.626;23.380;2023-03-03T16:00:24;24.97;;;19.17;;
39300;SDS011;25019;42.626;23.380;2023-03-03T16:03:11;23.83;;;18.87;;
39300;SDS011;25019;42.626;23.380;2023-03-03T16:06:00;26.07;;;19.83;;
39300;SDS011;25019;42.626;23.380;2023-03-03T16:17:04;25.03;;;18.73;;
39300;SDS011;25019;42.626;23.380;2023-03-03T16:19:50;22.93;;;18.17;;
39300;SDS011;25019;42.626;23.380;2023-03-03T16:32:52;19.87;;;17.00;;
39300;SDS011;25019;42.626;23.380;2023-03-03T16:35:48;23.17;;;16.43;;
39300;SDS011;25019;42.626;23.380;2023-03-03T16:38:39;21.13;;;16.77;;
39300;SDS011;25019;42.626;23.380;2023-03-03T16:41:10;19.53;;;15.90;;
39300;SDS011;25019;42.626;23.380;2023-03-03T16:46:47;21.83;;;17.03;;
39300;SDS011;25019;42.626;23.380;2023-03-03T16:49:23;24.10;;;18.20;;
39300;SDS011;25019;42.626;23.380;2023-03-03T17:03:02;24.10;;;17.80;;
39300;SDS011;25019;42.626;23.380;2023-03-03T17:06:20;24.37;;;17.90;;
39300;SDS011;25019;42.626;23.380;2023-03-03T17:11:17;21.90;;;17.77;;
39300;SDS011;25019;42.626;23.380;2023-03-03T17:14:04;23.27;;;17.97;;
39300;SDS011;25019;42.626;23.380;2023-03-03T17:16:57;23.27;;;17.60;;
39300;SDS011;25019;42.626;23.380;2023-03-03T17:19:38;25.43;;;18.47;;
39300;SDS011;25019;42.626;23.380;2023-03-03T17:22:44;23.77;;;17.97;;
39300;SDS011;25019;42.626;23.380;2023-03-03T17:25:21;25.53;;;19.13;;
39300;SDS011;25019;42.626;23.380;2023-03-03T17:28:39;24.17;;;18.67;;
39300;SDS011;25019;42.626;23.380;2023-03-03T17:47:39;27.13;;;21.33;;
39300;SDS011;25019;42.626;23.380;2023-03-03T18:09:09;30.73;;;22.20;;
39300;SDS011;25019;42.626;23.380;2023-03-03T18:14:17;29.90;;;22.63;;
39300;SDS011;25019;42.626;23.380;2023-03-03T18:25:18;29.67;;;22.03;;
39300;SDS011;25019;42.626;23.380;2023-03-03T18:30:25;33.00;;;23.20;;
39300;SDS011;25019;42.626;23.380;2023-03-03T18:35:21;30.07;;;22.10;;
39300;SDS011;25019;42.626;23.380;2023-03-03T18:37:47;32.43;;;22.93;;
39300;SDS011;25019;42.626;23.380;2023-03-03T18:40:15;31.67;;;21.83;;
39300;SDS011;25019;42.626;23.380;2023-03-03T18:42:43;30.60;;;20.40;;
39300;SDS011;25019;42.626;23.380;2023-03-03T18:45:11;32.13;;;21.87;;
39300;SDS011;25019;42.626;23.380;2023-03-03T18:48:07;25.43;;;18.73;;
39300;SDS011;25019;42.626;23.380;2023-03-03T18:50:35;28.03;;;20.13;;
39300;SDS011;25019;42.626;23.380;2023-03-03T18:55:56;23.93;;;17.97;;
39300;SDS011;25019;42.626;23.380;2023-03-03T18:58:36;23.90;;;17.27;;
39300;SDS011;25019;42.626;23.380;2023-03-03T19:04:00;16.47;;;13.30;;
39300;SDS011;25019;42.626;23.380;2023-03-03T19:09:05;14.47;;;10.73;;
39300;SDS011;25019;42.626;23.380;2023-03-03T19:11:39;12.53;;;10.07;;
39300;SDS011;25019;42.626;23.380;2023-03-03T19:16:53;11.53;;;10.17;;
39300;SDS011;25019;42.626;23.380;2023-03-03T19:19:21;12.40;;;10.43;;
39300;SDS011;25019;42.626;23.380;2023-03-03T19:21:49;17.40;;;12.50;;
39300;SDS011;25019;42.626;23.380;2023-03-03T19:24:35;14.27;;;11.87;;
39300;SDS011;25019;42.626;23.380;2023-03-03T19:27:17;14.37;;;11.33;;
39300;SDS011;25019;42.626;23.380;2023-03-03T19:38:07;10.00;;;8.60;;
39300;SDS011;25019;42.626;23.380;2023-03-03T19:43:36;11.60;;;8.50;;
39300;SDS011;25019;42.626;23.380;2023-03-03T19:51:48;18.73;;;9.27;;
39300;SDS011;25019;42.626;23.380;2023-03-03T19:57:25;13.83;;;10.07;;
39300;SDS011;25019;42.626;23.380;2023-03-03T20:00:36;11.13;;;9.30;;
39300;SDS011;25019;42.626;23.380;2023-03-03T20:12:07;14.67;;;11.83;;
39300;SDS011;25019;42.626;23.380;2023-03-03T20:19:42;15.97;;;12.77;;
39300;SDS011;25019;42.626;23.380;2023-03-03T20:33:20;14.70;;;11.53;;
39300;SDS011;25019;42.626;23.380;2023-03-03T20:49:57;14.73;;;11.63;;
39300;SDS011;25019;42.626;23.380;2023-03-03T20:57:50;17.23;;;12.47;;
39300;SDS011;25019;42.626;23.380;2023-03-03T21:03:13;20.27;;;14.40;;
39300;SDS011;25019;42.626;23.380;2023-03-03T21:06:20;15.40;;;12.87;;
39300;SDS011;25019;42.626;23.380;2023-03-03T21:08:51;14.87;;;11.87;;
39300;SDS011;25019;42.626;23.380;2023-03-03T21:11:39;13.53;;;10.43;;
39300;SDS011;25019;42.626;23.380;2023-03-03T21:14:16;12.30;;;10.43;;
39300;SDS011;25019;42.626;23.380;2023-03-03T21:16:43;24.20;;;17.10;;
39300;SDS011;25019;42.626;23.380;2023-03-03T21:19:10;25.60;;;18.90;;
39300;SDS011;25019;42.626;23.380;2023-03-03T21:21:41;28.67;;;19.37;;
39300;SDS011;25019;42.626;23.380;2023-03-03T21:24:11;29.23;;;20.77;;